Time;durP1;ratioP1;P1;durP2;ratioP2;P2;SDS_P1;SDS_P2;PMS_P1;PMS_P2;Temp;Humidity;BMP_temperature;BMP_pressure;BME280_temperature;BME280_humidity;BME280_pressure;Samples;Min_cycle;Max_cycle;Signal;HPM_P1;HPM_P2
2023/04/10 00:02:18;;;;;;;;;;;7.10;75.60;;;;;;5023664;28;20015;-86
2023/04/10 00:04:44;;;;;;;;;;;7.10;75.70;;;;;;5020211;28;19920;-86
2023/04/10 00:07:10;;;;;;;;;;;7.10;75.40;;;;;;5015822;28;19959;-85
2023/04/10 00:09:35;;;;;;;;;;;7.00;76.50;;;;;;5016723;28;19909;-86
2023/04/10 00:12:06;;;;;;;;;;;7.00;76.00;;;;;;5011785;28;19917;-86
2023/04/10 00:14:31;;;;;;;;;;;7.00;76.10;;;;;;5022698;28;19919;-85
2023/04/10 00:16:59;;;;;;;;;;;7.00;76.00;;;;;;5019899;28;19972;-86
2023/04/10 00:19:25;;;;;;;;;;;7.00;75.80;;;;;;5046532;28;20390;-85
2023/04/10 00:21:50;;;;;;;;;;;7.00;76.30;;;;;;5046482;28;20014;-85
2023/04/10 00:24:16;;;;;;;;;;;7.10;76.10;;;;;;5039747;28;19913;-86
2023/04/10 00:26:41;;;;;;;;;;;7.10;76.10;;;;;;5014573;28;19925;-86
2023/04/10 00:29:07;;;;;;;;;;;7.10;76.10;;;;;;5026931;28;19920;-85
2023/04/10 00:31:32;;;;;;;;;;;7.10;76.10;;;;;;5021369;28;19917;-84
2023/04/10 00:33:58;;;;;;;;;;;7.10;75.70;;;;;;5040420;28;19971;-86
2023/04/10 00:36:23;;;;;;;;;;;7.10;75.30;;;;;;5035695;28;19967;-85
2023/04/10 00:38:48;;;;;;;;;;;7.10;75.90;;;;;;5033048;28;20572;-85
2023/04/10 00:41:14;;;;;;;;;;;7.10;76.40;;;;;;5017994;28;20302;-85
2023/04/10 00:43:40;;;;;;;;;;;7.00;75.80;;;;;;5033864;28;20409;-86
2023/04/10 00:46:06;;;;;;;;;;;7.00;76.30;;;;;;5020215;28;20019;-85
2023/04/10 00:48:32;;;;;;;;;;;7.00;76.60;;;;;;5024183;28;19913;-85
2023/04/10 00:50:58;;;;;;;;;;;6.90;76.50;;;;;;5043832;28;19924;-85
2023/04/10 00:53:24;;;;;;;;;;;7.00;76.30;;;;;;5030086;28;19909;-86
2023/04/10 00:55:49;;;;;;;;;;;7.00;76.80;;;;;;5029406;28;20185;-85
2023/04/10 00:58:15;;;;;;;;;;;7.00;76.10;;;;;;5044862;28;19979;-86
2023/04/10 01:00:40;;;;;;;;;;;7.00;76.30;;;;;;5051649;28;19913;-86
2023/04/10 01:03:07;;;;;;;;;;;6.90;76.70;;;;;;5026804;28;19913;-86
2023/04/10 01:05:40;;;;;;;;;;;6.90;77.30;;;;;;5029477;28;20318;-85
2023/04/10 01:08:21;;;;;;;;;;;6.90;77.20;;;;;;5028395;28;20386;-85
2023/04/10 01:11:05;;;;;;;;;;;6.90;77.70;;;;;;5045127;28;20409;-85
2023/04/10 01:13:37;;;;;;;;;;;6.90;77.40;;;;;;5020723;28;19913;-85
2023/04/10 01:16:09;;;;;;;;;;;7.00;77.60;;;;;;5017210;28;19976;-85
2023/04/10 01:18:47;;;;;;;;;;;6.90;77.40;;;;;;5028516;28;20371;-85
2023/04/10 01:21:14;;;;;;;;;;;6.90;77.20;;;;;;5037713;28;20228;-85
2023/04/10 01:24:06;;;;;;;;;;;6.90;77.00;;;;;;5019433;28;19913;-86
2023/04/10 01:26:38;;;;;;;;;;;6.90;77.40;;;;;;5015717;28;19921;-85
2023/04/10 01:29:05;;;;;;;;;;;6.80;77.10;;;;;;5018319;28;20331;-85
2023/04/10 01:31:35;;;;;;;;;;;6.90;77.10;;;;;;5017955;28;19964;-85
2023/04/10 01:34:19;;;;;;;;;;;6.80;77.40;;;;;;5025927;28;19932;-86
2023/04/10 01:36:56;;;;;;;;;;;6.90;77.20;;;;;;5028034;28;19975;-85
2023/04/10 01:39:22;;;;;;;;;;;6.80;77.20;;;;;;5012553;28;19971;-85
2023/04/10 01:41:50;;;;;;;;;;;6.80;77.10;;;;;;5037336;28;20067;-84
2023/04/10 01:44:17;;;;;;;;;;;6.80;77.90;;;;;;5050558;28;19921;-87
2023/04/10 01:46:43;;;;;;;;;;;6.80;77.60;;;;;;5037444;28;20653;-85
2023/04/10 01:49:09;;;;;;;;;;;6.80;78.30;;;;;;5046140;28;19917;-86
2023/04/10 01:51:35;;;;;;;;;;;6.80;77.70;;;;;;5026760;28;19909;-86
2023/04/10 01:54:01;;;;;;;;;;;6.80;77.60;;;;;;5045427;28;19975;-86
2023/04/10 01:56:27;;;;;;;;;;;6.70;77.80;;;;;;5021709;28;19924;-86
2023/04/10 01:58:53;;;;;;;;;;;6.70;77.50;;;;;;5031519;28;19921;-86
2023/04/10 02:01:19;;;;;;;;;;;6.70;77.80;;;;;;5032621;28;19924;-87
2023/04/10 02:03:45;;;;;;;;;;;6.70;77.20;;;;;;5037628;28;19913;-86
2023/04/10 02:06:15;;;;;;;;;;;6.70;77.60;;;;;;5043347;28;19913;-86
2023/04/10 02:08:52;;;;;;;;;;;6.60;77.40;;;;;;5033209;28;19945;-87
2023/04/10 02:11:30;;;;;;;;;;;6.70;77.60;;;;;;5032666;28;19954;-86
2023/04/10 02:13:58;;;;;;;;;;;6.70;77.30;;;;;;5037712;28;19917;-86
2023/04/10 02:16:23;;;;;;;;;;;6.60;78.20;;;;;;5025189;28;19913;-86
2023/04/10 02:18:49;;;;;;;;;;;6.60;77.80;;;;;;5028925;28;20444;-87
2023/04/10 02:21:14;;;;;;;;;;;6.60;78.20;;;;;;5023255;28;19925;-86
2023/04/10 02:23:40;;;;;;;;;;;6.60;78.30;;;;;;5035708;28;19917;-85
2023/04/10 02:26:09;;;;;;;;;;;6.60;78.20;;;;;;5030952;28;19946;-85
2023/04/10 02:28:38;;;;;;;;;;;6.60;78.50;;;;;;5026428;28;19936;-85
2023/04/10 02:31:04;;;;;;;;;;;6.50;78.70;;;;;;4703967;22;19929;-85
2023/04/10 02:33:29;;;;;;;;;;;6.50;78.60;;;;;;5065676;28;19917;-86
2023/04/10 02:35:58;;;;;;;;;;;6.40;78.90;;;;;;5053440;28;19913;-87
2023/04/10 02:38:24;;;;;;;;;;;6.50;79.20;;;;;;5045097;28;20024;-86
2023/04/10 02:40:49;;;;;;;;;;;6.40;78.90;;;;;;5029740;28;19956;-82
2023/04/10 02:43:15;;;;;;;;;;;6.50;79.00;;;;;;5031678;28;19921;-83
2023/04/10 02:45:41;;;;;;;;;;;6.50;79.00;;;;;;5030790;28;19913;-84
2023/04/10 02:48:06;;;;;;;;;;;6.40;79.00;;;;;;5033363;28;19910;-83
2023/04/10 02:50:32;;;;;;;;;;;6.40;79.20;;;;;;5026332;28;19914;-82
2023/04/10 02:52:57;;;;;;;;;;;6.40;78.40;;;;;;5031990;28;19909;-82
2023/04/10 02:55:23;;;;;;;;;;;6.40;78.90;;;;;;5039678;28;19921;-84
2023/04/10 02:57:49;;;;;;;;;;;6.40;78.80;;;;;;5024702;28;19936;-83
2023/04/10 03:00:15;;;;;;;;;;;6.40;78.60;;;;;;5026950;28;19921;-86
2023/04/10 03:02:40;;;;;;;;;;;6.40;78.90;;;;;;5023843;28;19932;-85
2023/04/10 03:05:07;;;;;;;;;;;6.40;78.90;;;;;;5028236;28;20450;-85
2023/04/10 03:07:33;;;;;;;;;;;6.40;78.60;;;;;;5023894;28;20293;-85
2023/04/10 03:09:58;;;;;;;;;;;6.50;78.80;;;;;;5020885;28;19913;-85
2023/04/10 03:12:24;;;;;;;;;;;6.30;78.60;;;;;;5035448;28;19917;-85
2023/04/10 03:14:49;;;;;;;;;;;6.40;79.00;;;;;;5018821;28;20336;-85
2023/04/10 03:17:15;;;;;;;;;;;6.40;78.70;;;;;;5028801;28;19921;-86
2023/04/10 03:19:40;;;;;;;;;;;6.30;78.30;;;;;;5017608;28;19914;-85
2023/04/10 03:22:06;;;;;;;;;;;6.30;78.30;;;;;;5023906;28;19919;-86
2023/04/10 03:24:31;;;;;;;;;;;6.40;78.00;;;;;;5017984;28;20129;-86
2023/04/10 03:26:57;;;;;;;;;;;6.30;78.40;;;;;;5023468;28;19963;-87
2023/04/10 03:29:22;;;;;;;;;;;6.40;78.20;;;;;;5022901;28;19917;-85
2023/04/10 03:31:48;;;;;;;;;;;6.40;78.50;;;;;;5029988;28;20481;-86
2023/04/10 03:34:13;;;;;;;;;;;6.40;78.70;;;;;;5021182;28;19909;-85
2023/04/10 03:36:39;;;;;;;;;;;6.30;78.60;;;;;;5025066;28;19953;-85
2023/04/10 03:39:04;;;;;;;;;;;6.30;79.30;;;;;;5021316;28;19913;-86
2023/04/10 03:41:30;;;;;;;;;;;6.30;79.50;;;;;;5015709;28;19917;-86
2023/04/10 03:43:55;;;;;;;;;;;6.30;78.70;;;;;;5035635;28;19913;-87
2023/04/10 03:46:21;;;;;;;;;;;6.30;79.10;;;;;;5021172;28;19917;-86
2023/04/10 03:48:48;;;;;;;;;;;6.20;79.50;;;;;;5023998;28;19910;-86
2023/04/10 03:51:14;;;;;;;;;;;6.20;79.10;;;;;;5028882;28;19921;-86
2023/04/10 03:53:39;;;;;;;;;;;6.20;79.00;;;;;;5025104;28;19920;-86
2023/04/10 03:56:05;;;;;;;;;;;6.20;78.30;;;;;;5017463;28;20008;-85
2023/04/10 03:58:30;;;;;;;;;;;6.20;78.70;;;;;;5020978;28;20020;-87
2023/04/10 04:00:56;;;;;;;;;;;6.30;79.10;;;;;;5030696;28;20003;-86
2023/04/10 04:03:21;;;;;;;;;;;6.30;79.30;;;;;;5024503;28;20551;-86
2023/04/10 04:05:47;;;;;;;;;;;6.20;79.40;;;;;;5029967;28;19921;-86
2023/04/10 04:08:12;;;;;;;;;;;6.20;79.10;;;;;;5022608;28;19917;-86
2023/04/10 04:10:38;;;;;;;;;;;6.20;79.00;;;;;;5017560;28;19913;-86
2023/04/10 04:13:04;;;;;;;;;;;6.20;79.00;;;;;;5028714;28;19924;-86
2023/04/10 04:15:29;;;;;;;;;;;6.10;79.00;;;;;;5016586;28;19917;-86
2023/04/10 04:17:55;;;;;;;;;;;6.10;79.20;;;;;;5028500;28;19944;-86
2023/04/10 04:20:21;;;;;;;;;;;6.10;78.80;;;;;;5030081;28;20380;-86
2023/04/10 04:22:46;;;;;;;;;;;6.10;78.20;;;;;;5036917;28;20012;-86
2023/04/10 04:25:12;;;;;;;;;;;6.10;78.20;;;;;;5037941;28;19913;-85
2023/04/10 04:27:37;;;;;;;;;;;6.10;78.20;;;;;;5028738;28;19969;-86
2023/04/10 04:30:03;;;;;;;;;;;6.00;78.70;;;;;;5034964;28;19928;-85
2023/04/10 04:32:29;;;;;;;;;;;6.00;79.30;;;;;;5034357;28;19913;-85
2023/04/10 04:34:54;;;;;;;;;;;6.00;79.30;;;;;;5033086;28;19916;-86
2023/04/10 04:37:20;;;;;;;;;;;6.00;79.10;;;;;;5025540;28;19917;-86
2023/04/10 04:39:45;;;;;;;;;;;6.00;79.10;;;;;;5040959;28;19909;-86
2023/04/10 04:42:11;;;;;;;;;;;5.90;79.00;;;;;;5037409;28;19974;-86
2023/04/10 04:44:36;;;;;;;;;;;5.80;79.20;;;;;;5033645;28;19988;-86
2023/04/10 04:47:01;;;;;;;;;;;5.90;79.10;;;;;;5045391;28;19917;-85
2023/04/10 04:49:27;;;;;;;;;;;5.90;79.40;;;;;;5029958;28;19924;-86
2023/04/10 04:51:52;;;;;;;;;;;5.80;79.70;;;;;;5028793;28;19921;-86
2023/04/10 04:54:18;;;;;;;;;;;5.90;79.50;;;;;;5034745;28;20055;-87
2023/04/10 04:56:43;;;;;;;;;;;5.90;79.50;;;;;;5020263;28;19917;-87
2023/04/10 04:59:09;;;;;;;;;;;5.80;79.80;;;;;;5027125;28;19917;-85
2023/04/10 05:01:34;;;;;;;;;;;5.80;79.30;;;;;;5046695;28;19964;-85
2023/04/10 05:04:00;;;;;;;;;;;5.80;79.50;;;;;;5029508;28;20335;-86
2023/04/10 05:06:25;;;;;;;;;;;5.80;79.30;;;;;;5028656;28;20356;-85
2023/04/10 05:08:51;;;;;;;;;;;5.90;79.10;;;;;;5028883;28;19975;-86
2023/04/10 05:11:17;;;;;;;;;;;5.80;79.70;;;;;;5034198;28;20285;-85
2023/04/10 05:13:42;;;;;;;;;;;5.80;79.70;;;;;;5037914;28;20084;-86
2023/04/10 05:16:08;;;;;;;;;;;5.90;79.50;;;;;;5039466;28;20012;-85
2023/04/10 05:18:34;;;;;;;;;;;5.90;79.40;;;;;;5033464;28;19956;-85
2023/04/10 05:20:59;;;;;;;;;;;5.80;79.60;;;;;;5039384;28;19913;-85
2023/04/10 05:23:25;;;;;;;;;;;5.90;79.60;;;;;;5052697;28;20617;-87
2023/04/10 05:25:51;;;;;;;;;;;5.90;79.70;;;;;;5053879;28;20000;-89
2023/04/10 05:28:16;;;;;;;;;;;6.00;79.90;;;;;;5031704;28;19909;-86
2023/04/10 05:30:42;;;;;;;;;;;6.00;79.60;;;;;;5037900;28;19917;-86
2023/04/10 05:33:07;;;;;;;;;;;6.00;79.60;;;;;;5030183;28;19973;-86
2023/04/10 05:35:33;;;;;;;;;;;6.10;79.30;;;;;;5026308;28;19953;-85
2023/04/10 05:37:59;;;;;;;;;;;6.10;79.40;;;;;;5032123;28;19918;-86
2023/04/10 05:40:25;;;;;;;;;;;6.10;79.40;;;;;;5035879;28;19909;-85
2023/04/10 05:42:50;;;;;;;;;;;6.10;79.70;;;;;;5032304;28;19920;-86
2023/04/10 05:45:17;;;;;;;;;;;6.20;79.70;;;;;;5048917;28;19910;-86
2023/04/10 05:47:43;;;;;;;;;;;6.20;79.60;;;;;;5037319;28;19913;-86
2023/04/10 05:50:08;;;;;;;;;;;6.20;79.60;;;;;;5020160;28;20004;-86
2023/04/10 05:52:34;;;;;;;;;;;6.30;79.80;;;;;;5030821;28;19913;-86
2023/04/10 05:55:00;;;;;;;;;;;6.30;79.50;;;;;;5050779;28;19964;-86
2023/04/10 05:57:25;;;;;;;;;;;6.40;79.40;;;;;;5028211;28;19920;-86
2023/04/10 05:59:51;;;;;;;;;;;6.40;79.20;;;;;;5032324;28;19909;-86
2023/04/10 06:02:17;;;;;;;;;;;6.40;79.40;;;;;;5049056;28;19914;-87
2023/04/10 06:04:43;;;;;;;;;;;6.40;79.10;;;;;;5040991;28;19968;-87
2023/04/10 06:07:08;;;;;;;;;;;6.50;79.30;;;;;;5052699;28;19925;-87
2023/04/10 06:09:34;;;;;;;;;;;6.50;79.50;;;;;;5039681;28;19920;-87
2023/04/10 06:12:00;;;;;;;;;;;6.60;79.20;;;;;;5034554;28;19913;-86
2023/04/10 06:14:25;;;;;;;;;;;6.70;79.10;;;;;;5036813;28;19952;-86
2023/04/10 06:16:51;;;;;;;;;;;6.80;78.60;;;;;;5036219;28;19909;-86
2023/04/10 06:19:16;;;;;;;;;;;6.90;78.40;;;;;;5053409;28;19913;-86
2023/04/10 06:21:42;;;;;;;;;;;7.00;78.20;;;;;;5033612;28;19913;-86
2023/04/10 06:24:07;;;;;;;;;;;7.10;78.30;;;;;;5021768;28;19913;-87
2023/04/10 06:26:33;;;;;;;;;;;7.20;78.00;;;;;;5027136;28;19967;-88
2023/04/10 06:28:58;;;;;;;;;;;7.30;78.10;;;;;;5024116;28;19909;-85
2023/04/10 06:31:24;;;;;;;;;;;7.40;76.80;;;;;;5028322;28;19917;-86
2023/04/10 06:33:49;;;;;;;;;;;7.60;76.30;;;;;;5032433;28;19921;-86
2023/04/10 06:36:15;;;;;;;;;;;7.80;75.80;;;;;;5024930;28;19956;-85
2023/04/10 06:38:41;;;;;;;;;;;7.90;75.20;;;;;;5019425;28;20536;-84
2023/04/10 06:41:07;;;;;;;;;;;8.00;74.40;;;;;;5024153;28;19913;-85
2023/04/10 06:43:37;;;;;;;;;;;8.10;74.40;;;;;;5030376;28;19914;-84
2023/04/10 06:46:03;;;;;;;;;;;8.30;72.80;;;;;;5020106;28;20384;-85
2023/04/10 06:48:29;;;;;;;;;;;8.40;72.60;;;;;;5051354;28;20012;-84
2023/04/10 06:50:54;;;;;;;;;;;8.50;71.60;;;;;;5034582;28;19952;-85
2023/04/10 06:53:20;;;;;;;;;;;8.60;72.00;;;;;;5022135;28;20468;-83
2023/04/10 06:55:45;;;;;;;;;;;8.90;71.20;;;;;;5025954;28;19917;-83
2023/04/10 06:58:11;;;;;;;;;;;9.10;70.10;;;;;;5032874;28;19920;-83
2023/04/10 07:00:37;;;;;;;;;;;9.30;68.10;;;;;;5032515;28;20404;-89
2023/04/10 07:03:02;;;;;;;;;;;9.40;66.80;;;;;;5031284;28;19913;-86
2023/04/10 07:05:28;;;;;;;;;;;9.80;64.30;;;;;;5035594;28;19916;-84
2023/04/10 07:07:53;;;;;;;;;;;10.10;62.60;;;;;;5031245;28;19917;-84
2023/04/10 07:10:19;;;;;;;;;;;10.30;62.40;;;;;;5029713;28;19913;-84
2023/04/10 07:12:44;;;;;;;;;;;10.50;60.40;;;;;;5030097;28;20395;-80
2023/04/10 07:15:11;;;;;;;;;;;10.60;60.20;;;;;;5026053;28;19913;-81
2023/04/10 07:17:37;;;;;;;;;;;10.70;60.50;;;;;;5027800;28;20212;-80
2023/04/10 07:20:02;;;;;;;;;;;11.00;59.30;;;;;;5027300;28;19913;-80
2023/04/10 07:22:28;;;;;;;;;;;11.00;58.80;;;;;;5026528;28;19913;-80
2023/04/10 07:24:53;;;;;;;;;;;11.40;56.40;;;;;;5023020;28;19925;-79
2023/04/10 07:27:19;;;;;;;;;;;11.60;56.40;;;;;;5017466;28;19921;-80
2023/04/10 07:29:45;;;;;;;;;;;11.70;55.30;;;;;;5030641;28;19917;-80
2023/04/10 07:32:11;;;;;;;;;;;11.80;54.90;;;;;;5037628;28;20331;-81
2023/04/10 07:34:36;;;;;;;;;;;11.90;55.10;;;;;;5024447;28;19939;-81
2023/04/10 07:37:01;;;;;;;;;;;12.00;55.50;;;;;;5025874;28;19913;-80
2023/04/10 07:39:27;;;;;;;;;;;12.10;54.30;;;;;;5026872;28;20000;-81
2023/04/10 07:41:53;;;;;;;;;;;12.10;52.40;;;;;;5023432;28;21865;-79
2023/04/10 07:44:19;;;;;;;;;;;12.10;52.50;;;;;;5024890;28;19920;-80
2023/04/10 07:46:44;;;;;;;;;;;12.10;51.90;;;;;;5022711;28;20001;-78
2023/04/10 07:49:10;;;;;;;;;;;12.30;51.60;;;;;;5023614;28;19921;-78
2023/04/10 07:51:36;;;;;;;;;;;12.30;50.70;;;;;;5022851;28;20019;-78
2023/04/10 07:54:02;;;;;;;;;;;12.50;49.10;;;;;;5019633;28;20012;-79
2023/04/10 07:56:30;;;;;;;;;;;12.50;50.30;;;;;;5038179;28;20005;-78
2023/04/10 07:58:57;;;;;;;;;;;12.60;50.80;;;;;;5025753;28;19924;-80
2023/04/10 08:01:23;;;;;;;;;;;12.60;51.00;;;;;;5019223;28;20361;-80
2023/04/10 08:03:48;;;;;;;;;;;12.70;50.40;;;;;;5024959;28;19923;-79
2023/04/10 08:06:14;;;;;;;;;;;12.80;49.40;;;;;;5029268;28;19919;-80
2023/04/10 08:08:40;;;;;;;;;;;12.80;48.60;;;;;;5021981;28;19909;-80
2023/04/10 08:11:06;;;;;;;;;;;12.90;48.10;;;;;;5031814;28;19939;-77
2023/04/10 08:13:32;;;;;;;;;;;12.80;49.40;;;;;;5040757;28;19920;-81
2023/04/10 08:15:58;;;;;;;;;;;12.90;48.00;;;;;;5014687;28;20382;-79
2023/04/10 08:18:24;;;;;;;;;;;12.80;48.80;;;;;;5027833;28;20011;-80
2023/04/10 08:20:49;;;;;;;;;;;12.70;49.30;;;;;;5028142;28;19939;-81
2023/04/10 08:23:15;;;;;;;;;;;12.80;48.50;;;;;;5042334;28;19927;-80
2023/04/10 08:25:40;;;;;;;;;;;12.70;48.90;;;;;;5036194;28;19917;-82
2023/04/10 08:28:06;;;;;;;;;;;12.90;47.80;;;;;;5024990;28;20014;-79
2023/04/10 08:30:31;;;;;;;;;;;13.10;47.30;;;;;;5070539;22;19935;-83
2023/04/10 08:32:57;;;;;;;;;;;13.10;47.80;;;;;;5079802;28;19962;-85
2023/04/10 08:35:22;;;;;;;;;;;13.20;48.50;;;;;;5051109;28;19909;-83
2023/04/10 08:37:47;;;;;;;;;;;13.30;47.50;;;;;;5071419;28;19916;-85
2023/04/10 08:40:14;;;;;;;;;;;13.40;47.60;;;;;;5064052;28;19916;-86
2023/04/10 08:42:40;;;;;;;;;;;13.40;47.00;;;;;;5061661;28;19932;-85
2023/04/10 08:45:05;;;;;;;;;;;13.60;45.50;;;;;;5075704;28;19912;-85
2023/04/10 08:47:34;;;;;;;;;;;13.60;45.30;;;;;;5060362;28;19999;-81
2023/04/10 08:50:03;;;;;;;;;;;13.60;45.40;;;;;;5062420;28;19999;-84
2023/04/10 08:52:30;;;;;;;;;;;13.70;45.10;;;;;;5066179;28;19912;-85
2023/04/10 08:54:57;;;;;;;;;;;13.80;45.50;;;;;;5068677;28;20398;-87
2023/04/10 08:57:23;;;;;;;;;;;14.00;44.50;;;;;;5055039;28;21496;-85
2023/04/10 08:59:50;;;;;;;;;;;14.10;45.40;;;;;;5055616;28;19919;-83
2023/04/10 09:02:16;;;;;;;;;;;14.10;45.60;;;;;;5052081;28;19975;-82
2023/04/10 09:04:46;;;;;;;;;;;14.30;44.10;;;;;;5050183;28;19917;-84
2023/04/10 09:07:12;;;;;;;;;;;14.50;43.90;;;;;;5055784;28;19969;-82
2023/04/10 09:09:37;;;;;;;;;;;14.50;43.60;;;;;;5075742;28;19952;-83
2023/04/10 09:12:04;;;;;;;;;;;14.50;43.40;;;;;;5071833;28;19912;-83
2023/04/10 09:14:30;;;;;;;;;;;14.40;43.90;;;;;;5056745;28;19928;-82
2023/04/10 09:17:12;;;;;;;;;;;14.40;44.10;;;;;;5055906;28;19921;-83
2023/04/10 09:19:38;;;;;;;;;;;14.50;43.20;;;;;;5063716;28;19920;-83
2023/04/10 09:22:04;;;;;;;;;;;14.70;42.90;;;;;;5073679;28;20254;-84
2023/04/10 09:24:29;;;;;;;;;;;14.60;42.40;;;;;;5068763;28;19936;-84
2023/04/10 09:26:55;;;;;;;;;;;14.80;42.30;;;;;;5071015;28;19927;-83
2023/04/10 09:29:20;;;;;;;;;;;14.80;42.10;;;;;;5067880;28;19932;-85
2023/04/10 09:31:46;;;;;;;;;;;14.70;42.10;;;;;;5064796;28;19921;-84
2023/04/10 09:34:13;;;;;;;;;;;14.80;42.80;;;;;;5061862;28;19913;-81
2023/04/10 09:36:42;;;;;;;;;;;14.80;43.30;;;;;;5066796;28;20018;-82
2023/04/10 09:39:08;;;;;;;;;;;15.00;41.60;;;;;;5063294;28;20406;-83
2023/04/10 09:41:33;;;;;;;;;;;15.00;41.30;;;;;;5068888;28;19970;-83
2023/04/10 09:44:09;;;;;;;;;;;15.20;41.50;;;;;;5060006;28;19913;-83
2023/04/10 09:46:34;;;;;;;;;;;15.10;41.00;;;;;;5051276;28;19913;-83
2023/04/10 09:49:03;;;;;;;;;;;15.20;41.00;;;;;;5055840;28;19923;-82
2023/04/10 09:51:33;;;;;;;;;;;15.30;40.80;;;;;;5054471;28;19920;-83
2023/04/10 09:53:59;;;;;;;;;;;15.50;40.10;;;;;;5057360;28;19913;-83
2023/04/10 09:56:26;;;;;;;;;;;15.60;39.80;;;;;;5049141;28;20453;-83
2023/04/10 09:58:57;;;;;;;;;;;15.60;40.80;;;;;;5062406;28;19976;-82
2023/04/10 10:01:24;;;;;;;;;;;15.60;39.70;;;;;;5058369;28;19916;-83
2023/04/10 10:03:50;;;;;;;;;;;15.60;40.20;;;;;;5046312;28;20309;-81
2023/04/10 10:06:16;;;;;;;;;;;15.60;39.60;;;;;;5050546;28;19919;-82
2023/04/10 10:08:41;;;;;;;;;;;15.70;41.00;;;;;;5049906;28;19917;-82
2023/04/10 10:11:10;;;;;;;;;;;15.60;40.60;;;;;;5052782;28;19916;-82
2023/04/10 10:13:53;;;;;;;;;;;15.60;40.00;;;;;;5065259;28;19924;-83
2023/04/10 10:16:20;;;;;;;;;;;15.70;39.70;;;;;;5048939;28;20417;-83
2023/04/10 10:19:01;;;;;;;;;;;15.70;38.30;;;;;;5052995;28;19917;-83
2023/04/10 10:21:28;;;;;;;;;;;15.60;38.70;;;;;;5043505;28;19920;-84
2023/04/10 10:23:54;;;;;;;;;;;15.70;38.50;;;;;;5051567;28;19917;-83
2023/04/10 10:26:22;;;;;;;;;;;15.80;37.90;;;;;;5046456;28;19963;-82
2023/04/10 10:28:49;;;;;;;;;;;16.00;37.90;;;;;;5052745;28;20392;-83
2023/04/10 10:31:17;;;;;;;;;;;16.00;38.80;;;;;;5049502;28;19925;-83
2023/04/10 10:33:42;;;;;;;;;;;16.20;38.10;;;;;;5065637;28;19966;-82
2023/04/10 10:36:09;;;;;;;;;;;16.10;38.80;;;;;;5058395;28;19912;-81
2023/04/10 10:38:38;;;;;;;;;;;16.00;38.20;;;;;;5055526;28;20415;-84
2023/04/10 10:41:17;;;;;;;;;;;16.10;38.00;;;;;;5048511;28;19917;-81
2023/04/10 10:43:42;;;;;;;;;;;16.30;37.60;;;;;;5046524;28;20255;-80
2023/04/10 10:46:11;;;;;;;;;;;16.20;37.00;;;;;;5051418;28;19924;-79
2023/04/10 10:48:36;;;;;;;;;;;16.30;37.40;;;;;;5074128;28;19916;-82
2023/04/10 10:51:03;;;;;;;;;;;16.20;36.90;;;;;;5069495;28;19954;-80
2023/04/10 10:53:32;;;;;;;;;;;16.20;36.60;;;;;;5067636;28;19908;-79
2023/04/10 10:55:58;;;;;;;;;;;16.20;37.60;;;;;;5042855;28;19913;-79
2023/04/10 10:58:44;;;;;;;;;;;16.30;37.10;;;;;;5065162;28;19968;-80
2023/04/10 11:01:09;;;;;;;;;;;16.50;37.50;;;;;;5082483;28;19909;-81
2023/04/10 11:03:34;;;;;;;;;;;16.70;38.80;;;;;;5084916;28;19909;-80
2023/04/10 11:06:06;;;;;;;;;;;16.70;37.00;;;;;;5067327;28;19921;-81
2023/04/10 11:08:31;;;;;;;;;;;16.60;38.40;;;;;;5065100;28;19987;-80
2023/04/10 11:11:04;;;;;;;;;;;16.60;38.20;;;;;;5051887;28;20440;-80
2023/04/10 11:13:33;;;;;;;;;;;16.60;38.90;;;;;;5058311;28;19913;-83
2023/04/10 11:16:00;;;;;;;;;;;16.60;39.00;;;;;;5060647;28;19948;-81
2023/04/10 11:18:44;;;;;;;;;;;16.60;39.10;;;;;;5060515;28;19924;-82
2023/04/10 11:21:13;;;;;;;;;;;16.70;38.60;;;;;;5068083;28;19909;-82
2023/04/10 11:23:57;;;;;;;;;;;16.80;37.80;;;;;;5070270;28;19923;-81
2023/04/10 11:26:43;;;;;;;;;;;16.90;37.30;;;;;;5067402;28;19920;-81
2023/04/10 11:29:11;;;;;;;;;;;17.00;36.80;;;;;;5053366;28;19913;-82
2023/04/10 11:31:37;;;;;;;;;;;17.00;37.80;;;;;;5073279;28;19925;-81
2023/04/10 11:34:04;;;;;;;;;;;17.10;37.30;;;;;;5044203;28;19916;-82
2023/04/10 11:36:31;;;;;;;;;;;17.00;36.30;;;;;;5054694;28;19923;-82
2023/04/10 11:38:56;;;;;;;;;;;17.00;37.70;;;;;;5067216;28;19938;-83
2023/04/10 11:41:26;;;;;;;;;;;17.00;36.70;;;;;;5065626;28;19920;-82
2023/04/10 11:43:52;;;;;;;;;;;17.00;36.10;;;;;;5059441;28;19909;-82
2023/04/10 11:46:18;;;;;;;;;;;17.00;37.30;;;;;;5067134;28;19920;-81
2023/04/10 11:48:43;;;;;;;;;;;17.00;37.40;;;;;;5066719;28;19917;-82
2023/04/10 11:51:10;;;;;;;;;;;17.00;36.80;;;;;;5087640;28;19941;-82
2023/04/10 11:53:36;;;;;;;;;;;17.10;36.90;;;;;;5069163;28;19917;-82
2023/04/10 11:56:01;;;;;;;;;;;17.10;36.70;;;;;;5072044;28;20339;-80
2023/04/10 11:58:29;;;;;;;;;;;17.10;36.40;;;;;;5056769;28;20015;-82
2023/04/10 12:01:03;;;;;;;;;;;17.10;37.10;;;;;;5056828;28;20285;-82
2023/04/10 12:03:36;;;;;;;;;;;17.10;36.70;;;;;;5051560;28;19909;-82
2023/04/10 12:06:03;;;;;;;;;;;17.30;36.80;;;;;;5069514;28;19909;-80
2023/04/10 12:08:31;;;;;;;;;;;17.30;37.30;;;;;;5062164;28;19909;-81
2023/04/10 12:10:57;;;;;;;;;;;17.20;38.10;;;;;;5061179;28;19952;-80
2023/04/10 12:13:23;;;;;;;;;;;17.30;37.80;;;;;;5061864;28;19913;-81
2023/04/10 12:15:49;;;;;;;;;;;17.30;38.00;;;;;;5054935;28;19909;-83
2023/04/10 12:18:14;;;;;;;;;;;17.40;37.00;;;;;;5074499;28;19990;-81
2023/04/10 12:20:40;;;;;;;;;;;17.60;36.90;;;;;;5069420;28;19919;-81
2023/04/10 12:23:05;;;;;;;;;;;17.60;36.80;;;;;;5077083;28;19931;-82
2023/04/10 12:25:31;;;;;;;;;;;17.50;37.20;;;;;;5084202;28;20304;-81
2023/04/10 12:27:57;;;;;;;;;;;17.50;37.20;;;;;;5071438;28;19935;-82
2023/04/10 12:30:22;;;;;;;;;;;17.50;36.90;;;;;;5068269;28;20054;-81
2023/04/10 12:32:52;;;;;;;;;;;17.60;36.50;;;;;;5065168;28;19909;-81
2023/04/10 12:35:17;;;;;;;;;;;17.60;36.30;;;;;;5080477;28;19909;-81
2023/04/10 12:37:50;;;;;;;;;;;17.80;36.50;;;;;;5070446;28;19916;-82
2023/04/10 12:40:16;;;;;;;;;;;17.90;36.40;;;;;;5074329;28;20451;-81
2023/04/10 12:42:41;;;;;;;;;;;17.80;36.20;;;;;;5079924;28;19912;-82
2023/04/10 12:45:08;;;;;;;;;;;17.70;36.20;;;;;;5060671;28;19908;-82
2023/04/10 12:47:52;;;;;;;;;;;17.80;35.80;;;;;;5062968;28;19913;-83
2023/04/10 12:50:19;;;;;;;;;;;17.80;35.70;;;;;;5070864;28;19934;-81
2023/04/10 12:52:45;;;;;;;;;;;17.80;35.90;;;;;;5080791;28;19943;-82
2023/04/10 12:55:15;;;;;;;;;;;17.90;36.10;;;;;;5081222;28;19909;-81
2023/04/10 12:57:41;;;;;;;;;;;17.90;36.20;;;;;;5060677;28;20024;-81
2023/04/10 13:00:11;;;;;;;;;;;17.80;35.50;;;;;;5053849;28;19949;-82
2023/04/10 13:02:37;;;;;;;;;;;18.00;35.90;;;;;;5061523;28;19913;-82
2023/04/10 13:05:03;;;;;;;;;;;18.10;34.80;;;;;;5062684;28;19920;-81
2023/04/10 13:07:28;;;;;;;;;;;18.00;35.70;;;;;;5067529;28;20297;-81
2023/04/10 13:09:54;;;;;;;;;;;18.10;36.60;;;;;;5071162;28;19909;-81
2023/04/10 13:12:19;;;;;;;;;;;18.10;35.50;;;;;;5079609;28;19909;-80
2023/04/10 13:14:45;;;;;;;;;;;18.20;34.10;;;;;;5074264;28;19917;-81
2023/04/10 13:17:11;;;;;;;;;;;18.20;34.00;;;;;;5065580;28;19913;-81
2023/04/10 13:19:36;;;;;;;;;;;18.30;33.60;;;;;;5060384;28;19916;-81
2023/04/10 13:22:03;;;;;;;;;;;18.20;31.50;;;;;;5059169;28;19943;-81
2023/04/10 13:24:29;;;;;;;;;;;18.20;31.70;;;;;;5059653;28;19912;-81
2023/04/10 13:26:57;;;;;;;;;;;18.20;32.10;;;;;;5061349;28;19924;-82
2023/04/10 13:29:22;;;;;;;;;;;18.20;32.20;;;;;;5040630;28;19909;-81
2023/04/10 13:31:49;;;;;;;;;;;18.20;30.60;;;;;;5052752;28;19917;-82
2023/04/10 13:34:14;;;;;;;;;;;18.10;30.90;;;;;;5044007;28;19913;-80
2023/04/10 13:36:40;;;;;;;;;;;18.00;31.70;;;;;;5055988;28;20384;-81
2023/04/10 13:39:05;;;;;;;;;;;18.00;32.00;;;;;;5057569;28;20011;-80
2023/04/10 13:41:31;;;;;;;;;;;18.10;31.80;;;;;;5054795;28;19913;-80
2023/04/10 13:43:56;;;;;;;;;;;18.10;31.60;;;;;;5055853;28;19913;-81
2023/04/10 13:46:21;;;;;;;;;;;18.10;31.90;;;;;;5069854;28;19908;-80
2023/04/10 13:48:47;;;;;;;;;;;18.20;32.40;;;;;;5077148;28;19919;-81
2023/04/10 13:51:12;;;;;;;;;;;18.20;32.80;;;;;;5072035;28;19926;-80
2023/04/10 13:53:38;;;;;;;;;;;18.50;32.30;;;;;;5061189;28;19924;-81
2023/04/10 13:56:04;;;;;;;;;;;18.30;32.80;;;;;;5074387;28;19939;-80
2023/04/10 13:58:32;;;;;;;;;;;18.50;32.30;;;;;;5065258;28;19917;-81
2023/04/10 14:00:58;;;;;;;;;;;18.50;32.10;;;;;;5067949;28;19913;-82
2023/04/10 14:03:23;;;;;;;;;;;18.50;32.30;;;;;;5082219;28;20038;-81
2023/04/10 14:05:49;;;;;;;;;;;18.30;31.90;;;;;;5087294;28;19936;-82
2023/04/10 14:08:15;;;;;;;;;;;18.30;32.30;;;;;;5075585;28;19921;-83
2023/04/10 14:10:40;;;;;;;;;;;18.20;32.50;;;;;;5075434;28;19959;-81
2023/04/10 14:13:06;;;;;;;;;;;18.10;32.90;;;;;;5078074;28;19913;-82
2023/04/10 14:15:32;;;;;;;;;;;18.20;33.30;;;;;;5058540;28;19915;-82
2023/04/10 14:17:58;;;;;;;;;;;18.00;33.70;;;;;;5057082;28;19921;-82
2023/04/10 14:20:31;;;;;;;;;;;17.90;33.90;;;;;;5092837;28;19897;-81
2023/04/10 14:22:56;;;;;;;;;;;18.00;34.50;;;;;;5078412;28;19915;-81